Time;durP1;ratioP1;P1;durP2;ratioP2;P2;SDS_P1;SDS_P2;PMS_P1;PMS_P2;Temp;Humidity;BMP_temperature;BMP_pressure;BME280_temperature;BME280_humidity;BME280_pressure;Samples;Min_cycle;Max_cycle;Signal;HPM_P1;HPM_P2
2022/09/04 00:02:06;;;;;;;;;;;17.30;99.90;;;;;;5053706;28;20382;-90
2022/09/04 00:04:45;;;;;;;;;;;17.30;99.90;;;;;;5074856;28;20007;-91
2022/09/04 00:07:20;;;;;;;;;;;17.30;99.90;;;;;;5065462;28;20007;-90
2022/09/04 00:09:57;;;;;;;;;;;17.30;99.90;;;;;;5097774;28;19936;-90
2022/09/04 00:12:29;;;;;;;;;;;17.20;99.90;;;;;;5065971;28;20021;-90
2022/09/04 00:15:09;;;;;;;;;;;17.20;99.90;;;;;;5065195;28;19924;-90
2022/09/04 00:17:40;;;;;;;;;;;17.20;99.90;;;;;;5095680;28;20614;-90
2022/09/04 00:20:27;;;;;;;;;;;17.20;99.90;;;;;;5065407;28;19925;-88
2022/09/04 00:22:59;;;;;;;;;;;17.20;99.90;;;;;;5076277;28;20397;-90
2022/09/04 00:25:34;;;;;;;;;;;17.20;99.90;;;;;;5086297;28;19924;-89
2022/09/04 00:28:03;;;;;;;;;;;17.20;99.90;;;;;;5084886;28;20308;-89
2022/09/04 00:30:29;;;;;;;;;;;17.10;99.90;;;;;;5065835;28;19931;-89
2022/09/04 00:32:54;;;;;;;;;;;17.10;99.90;;;;;;5085951;28;19924;-90
2022/09/04 00:35:31;;;;;;;;;;;17.10;99.90;;;;;;5072884;28;19971;-89
2022/09/04 00:38:02;;;;;;;;;;;17.10;99.90;;;;;;5064352;28;19928;-89
2022/09/04 00:40:28;;;;;;;;;;;17.10;99.90;;;;;;5065766;28;19924;-90
2022/09/04 00:43:05;;;;;;;;;;;17.10;99.90;;;;;;5066063;28;20028;-88
2022/09/04 00:45:49;;;;;;;;;;;17.00;99.90;;;;;;5063552;28;19924;-90
2022/09/04 00:48:20;;;;;;;;;;;17.00;99.90;;;;;;5063511;28;19986;-90
2022/09/04 00:50:49;;;;;;;;;;;17.00;99.90;;;;;;5063795;28;19931;-89
2022/09/04 00:53:43;;;;;;;;;;;17.00;99.90;;;;;;5063045;28;19970;-90
2022/09/04 00:56:09;;;;;;;;;;;16.90;99.90;;;;;;5080430;28;20410;-90
2022/09/04 00:58:40;;;;;;;;;;;16.90;99.90;;;;;;5063213;28;19924;-90
2022/09/04 01:01:08;;;;;;;;;;;16.90;99.90;;;;;;5064931;28;19924;-90
2022/09/04 01:04:05;;;;;;;;;;;16.90;99.90;;;;;;5064417;28;19924;-90
2022/09/04 01:06:39;;;;;;;;;;;16.90;99.90;;;;;;5034352;28;20321;-90
2022/09/04 01:09:23;;;;;;;;;;;16.80;99.90;;;;;;5064720;28;20187;-90
2022/09/04 01:11:55;;;;;;;;;;;16.80;99.90;;;;;;5099218;28;19958;-89
2022/09/04 01:14:25;;;;;;;;;;;16.80;99.90;;;;;;5079331;28;19928;-89
2022/09/04 01:17:08;;;;;;;;;;;16.70;99.90;;;;;;5096094;28;20037;-90
2022/09/04 01:19:49;;;;;;;;;;;16.70;99.90;;;;;;5063401;28;19978;-90
2022/09/04 01:22:20;;;;;;;;;;;16.70;99.90;;;;;;5064066;28;20382;-90
2022/09/04 01:24:45;;;;;;;;;;;16.60;99.90;;;;;;5063564;28;20478;-90
2022/09/04 01:27:18;;;;;;;;;;;16.60;99.90;;;;;;5080779;28;20015;-90
2022/09/04 01:30:04;;;;;;;;;;;16.50;99.90;;;;;;5062273;28;20362;-89
2022/09/04 01:32:34;;;;;;;;;;;16.50;99.90;;;;;;5064361;28;19925;-89
2022/09/04 01:35:05;;;;;;;;;;;16.50;99.90;;;;;;5063343;28;19935;-90
2022/09/04 01:37:48;;;;;;;;;;;16.50;99.90;;;;;;5062615;28;19955;-89
2022/09/04 01:40:33;;;;;;;;;;;16.40;99.90;;;;;;5064500;28;19925;-90
2022/09/04 01:43:01;;;;;;;;;;;16.40;99.90;;;;;;5078888;28;19924;-90
2022/09/04 01:45:45;;;;;;;;;;;16.40;99.90;;;;;;5082257;28;19924;-88
2022/09/04 01:48:15;;;;;;;;;;;16.40;99.90;;;;;;5082799;28;19924;-89
2022/09/04 01:50:42;;;;;;;;;;;16.40;99.90;;;;;;5083485;28;19924;-90
2022/09/04 01:53:13;;;;;;;;;;;16.40;99.90;;;;;;5083756;28;19932;-89
2022/09/04 01:55:50;;;;;;;;;;;16.40;99.90;;;;;;5083900;28;19924;-89
2022/09/04 01:58:34;;;;;;;;;;;16.30;99.90;;;;;;5082323;28;19932;-89
2022/09/04 02:01:05;;;;;;;;;;;16.30;99.90;;;;;;5083072;28;19924;-89
2022/09/04 02:03:54;;;;;;;;;;;16.30;99.90;;;;;;5063921;28;19931;-89
2022/09/04 02:06:28;;;;;;;;;;;16.30;99.90;;;;;;5063379;28;19972;-89
2022/09/04 02:09:02;;;;;;;;;;;16.20;99.90;;;;;;5063712;28;20456;-89
2022/09/04 02:11:28;;;;;;;;;;;16.20;99.90;;;;;;5063965;28;19924;-89
2022/09/04 02:14:03;;;;;;;;;;;16.10;99.90;;;;;;5062535;28;19931;-89
2022/09/04 02:16:37;;;;;;;;;;;16.20;99.90;;;;;;5062441;28;19924;-88
2022/09/04 02:19:16;;;;;;;;;;;16.20;99.90;;;;;;5062831;28;19979;-89
2022/09/04 02:21:41;;;;;;;;;;;16.20;99.90;;;;;;5063044;28;19925;-89
2022/09/04 02:24:22;;;;;;;;;;;16.10;99.90;;;;;;5063177;28;19931;-89
2022/09/04 02:26:51;;;;;;;;;;;16.10;99.90;;;;;;5061516;28;20446;-89
2022/09/04 02:29:32;;;;;;;;;;;16.10;99.90;;;;;;5061993;28;20038;-90
2022/09/04 02:32:18;;;;;;;;;;;16.00;99.90;;;;;;5068290;28;20014;-89
2022/09/04 02:35:01;;;;;;;;;;;16.10;99.90;;;;;;5068338;28;19924;-89
2022/09/04 02:37:37;;;;;;;;;;;16.00;99.90;;;;;;5063192;28;19925;-89
2022/09/04 02:40:03;;;;;;;;;;;16.00;99.90;;;;;;5062833;28;19928;-89
2022/09/04 02:42:46;;;;;;;;;;;16.00;99.90;;;;;;5062762;28;20302;-89
2022/09/04 02:45:23;;;;;;;;;;;16.00;99.90;;;;;;5060731;28;19924;-90
2022/09/04 02:48:03;;;;;;;;;;;16.00;99.90;;;;;;5061261;28;20344;-89
2022/09/04 02:50:49;;;;;;;;;;;16.00;99.90;;;;;;5062311;28;19925;-89
2022/09/04 02:53:33;;;;;;;;;;;16.00;99.90;;;;;;5063130;28;20287;-89
2022/09/04 02:56:17;;;;;;;;;;;16.00;99.90;;;;;;5094958;28;20022;-88
2022/09/04 02:58:48;;;;;;;;;;;16.00;99.90;;;;;;5060114;28;19929;-88
2022/09/04 03:01:23;;;;;;;;;;;16.00;99.90;;;;;;5062699;28;19929;-89
2022/09/04 03:03:59;;;;;;;;;;;16.00;99.90;;;;;;5077949;28;19928;-89
2022/09/04 03:06:39;;;;;;;;;;;16.00;99.90;;;;;;5044988;28;20397;-90
2022/09/04 03:09:09;;;;;;;;;;;15.90;99.90;;;;;;5062487;28;20144;-89
2022/09/04 03:11:37;;;;;;;;;;;15.90;99.90;;;;;;5060782;28;19931;-90
2022/09/04 03:14:03;;;;;;;;;;;15.90;99.90;;;;;;5060098;28;20374;-89
2022/09/04 03:16:33;;;;;;;;;;;15.90;99.90;;;;;;5077340;28;19935;-83
2022/09/04 03:18:59;;;;;;;;;;;15.90;99.90;;;;;;5062724;28;19925;-88
2022/09/04 03:21:42;;;;;;;;;;;15.90;99.90;;;;;;5062349;28;20337;-90
2022/09/04 03:24:11;;;;;;;;;;;15.80;99.90;;;;;;5062464;28;20372;-89
2022/09/04 03:26:39;;;;;;;;;;;15.80;99.90;;;;;;5049070;28;20267;-89
2022/09/04 03:29:07;;;;;;;;;;;15.80;99.90;;;;;;5081656;28;20245;-89
2022/09/04 03:31:44;;;;;;;;;;;15.80;99.90;;;;;;5080503;28;19951;-90
2022/09/04 03:34:14;;;;;;;;;;;15.80;99.90;;;;;;5081268;28;19951;-89
2022/09/04 03:36:52;;;;;;;;;;;15.70;99.90;;;;;;5061893;28;19924;-89
2022/09/04 03:39:24;;;;;;;;;;;15.70;99.90;;;;;;5062190;28;20712;-89
2022/09/04 03:42:03;;;;;;;;;;;15.70;99.90;;;;;;5060389;28;19924;-89
2022/09/04 03:44:52;;;;;;;;;;;15.70;99.90;;;;;;5060032;28;19952;-89
2022/09/04 03:47:38;;;;;;;;;;;15.60;99.90;;;;;;5063909;28;19924;-89
2022/09/04 03:50:14;;;;;;;;;;;15.60;99.90;;;;;;5060290;28;19925;-90
2022/09/04 03:52:46;;;;;;;;;;;15.60;99.90;;;;;;5061768;28;20375;-89
2022/09/04 03:55:18;;;;;;;;;;;15.60;99.90;;;;;;5061494;28;19931;-89
2022/09/04 03:57:47;;;;;;;;;;;15.60;99.90;;;;;;5060784;28;20310;-89
2022/09/04 04:00:17;;;;;;;;;;;15.60;99.90;;;;;;5062301;28;19929;-89
2022/09/04 04:03:01;;;;;;;;;;;15.60;99.90;;;;;;5062274;28;20378;-89
2022/09/04 04:05:46;;;;;;;;;;;15.50;99.90;;;;;;5060948;28;19924;-89
2022/09/04 04:08:20;;;;;;;;;;;15.50;99.90;;;;;;5060689;28;19924;-89
2022/09/04 04:11:05;;;;;;;;;;;15.50;99.90;;;;;;5061517;28;20310;-89
2022/09/04 04:13:48;;;;;;;;;;;15.50;99.90;;;;;;5042584;28;19978;-88
2022/09/04 04:16:16;;;;;;;;;;;15.50;99.90;;;;;;5080667;28;19997;-89
2022/09/04 04:19:00;;;;;;;;;;;15.50;99.90;;;;;;5081837;28;19924;-89
2022/09/04 04:21:26;;;;;;;;;;;15.50;99.90;;;;;;5083968;28;19994;-90
2022/09/04 04:23:58;;;;;;;;;;;15.50;99.90;;;;;;5085161;28;19954;-90
2022/09/04 04:26:42;;;;;;;;;;;15.40;99.90;;;;;;5085596;28;19973;-89
2022/09/04 04:29:27;;;;;;;;;;;15.50;99.90;;;;;;5083391;28;19982;-89
2022/09/04 04:32:12;;;;;;;;;;;15.40;99.90;;;;;;5085380;28;19928;-89
2022/09/04 04:35:16;;;;;;;;;;;15.40;99.90;;;;;;5078552;28;20552;-90
2022/09/04 04:37:50;;;;;;;;;;;15.40;99.90;;;;;;5025141;28;19967;-89
2022/09/04 04:40:29;;;;;;;;;;;15.40;99.90;;;;;;4990210;28;19925;-89
2022/09/04 04:42:58;;;;;;;;;;;15.40;99.90;;;;;;5036189;28;20382;-89
2022/09/04 04:45:49;;;;;;;;;;;15.40;99.90;;;;;;5043462;28;19924;-89
2022/09/04 04:48:35;;;;;;;;;;;15.30;99.90;;;;;;5065402;28;20299;-89
2022/09/04 04:51:15;;;;;;;;;;;15.30;99.90;;;;;;5063383;28;19925;-89
2022/09/04 04:53:59;;;;;;;;;;;15.30;99.90;;;;;;5065346;28;19925;-90
2022/09/04 04:56:30;;;;;;;;;;;15.30;99.90;;;;;;5047174;28;19951;-89
2022/09/04 04:59:34;;;;;;;;;;;15.30;99.90;;;;;;5063257;28;20083;-89
2022/09/04 05:02:06;;;;;;;;;;;15.30;99.90;;;;;;5022002;28;20215;-90
2022/09/04 05:04:39;;;;;;;;;;;15.30;99.90;;;;;;5021796;28;19983;-89
2022/09/04 05:07:13;;;;;;;;;;;15.30;99.90;;;;;;5016854;28;20351;-89
2022/09/04 05:09:56;;;;;;;;;;;15.30;99.90;;;;;;5044064;28;20284;-90
2022/09/04 05:12:40;;;;;;;;;;;15.30;99.90;;;;;;5043475;28;20311;-90
2022/09/04 05:15:06;;;;;;;;;;;15.30;99.90;;;;;;5060205;28;20282;-89
2022/09/04 05:17:39;;;;;;;;;;;15.30;99.90;;;;;;5064079;28;19925;-89
2022/09/04 05:20:17;;;;;;;;;;;15.30;99.90;;;;;;5063193;28;19931;-89
2022/09/04 05:22:45;;;;;;;;;;;15.30;99.90;;;;;;5062851;28;20382;-89
2022/09/04 05:25:11;;;;;;;;;;;15.30;99.90;;;;;;5079731;28;20019;-89
2022/09/04 05:27:40;;;;;;;;;;;15.30;99.90;;;;;;5062784;28;20501;-90
2022/09/04 05:30:05;;;;;;;;;;;15.30;99.90;;;;;;5063262;28;19924;-90
2022/09/04 05:32:34;;;;;;;;;;;15.30;99.90;;;;;;5063211;28;19925;-90
2022/09/04 05:35:12;;;;;;;;;;;15.30;99.90;;;;;;5067522;28;19924;-89
2022/09/04 05:37:54;;;;;;;;;;;15.40;99.90;;;;;;5063501;28;20422;-89
2022/09/04 05:40:45;;;;;;;;;;;15.40;99.90;;;;;;5063606;28;20038;-89
2022/09/04 05:43:18;;;;;;;;;;;15.40;99.90;;;;;;5061956;28;19925;-90
2022/09/04 05:45:50;;;;;;;;;;;15.40;99.90;;;;;;5062413;28;20427;-89
2022/09/04 05:48:25;;;;;;;;;;;15.40;99.90;;;;;;5063075;28;20287;-90
2022/09/04 05:51:03;;;;;;;;;;;15.50;99.90;;;;;;5062073;28;19931;-90
2022/09/04 05:53:48;;;;;;;;;;;15.50;99.90;;;;;;5045673;28;19967;-88
2022/09/04 05:56:35;;;;;;;;;;;15.50;99.90;;;;;;5096696;28;19928;-89
2022/09/04 05:59:17;;;;;;;;;;;15.50;99.90;;;;;;5078430;28;19931;-89
2022/09/04 06:01:52;;;;;;;;;;;15.60;99.90;;;;;;5079674;28;19929;-89
2022/09/04 06:04:17;;;;;;;;;;;15.60;99.90;;;;;;5064818;28;19932;-89
2022/09/04 06:06:46;;;;;;;;;;;15.60;99.90;;;;;;5065736;28;19932;-89
2022/09/04 06:09:11;;;;;;;;;;;15.60;99.90;;;;;;5043086;28;20281;-89
2022/09/04 06:11:50;;;;;;;;;;;15.60;99.90;;;;;;5043555;28;19994;-89
2022/09/04 06:14:25;;;;;;;;;;;15.60;99.90;;;;;;5036273;28;19932;-90
2022/09/04 06:16:54;;;;;;;;;;;15.60;99.90;;;;;;5062884;28;19925;-87
2022/09/04 06:19:25;;;;;;;;;;;15.60;99.90;;;;;;5063224;28;20295;-88
2022/09/04 06:22:07;;;;;;;;;;;15.70;99.90;;;;;;5062603;28;20471;-87
2022/09/04 06:24:51;;;;;;;;;;;15.70;99.90;;;;;;5061166;28;19928;-88
2022/09/04 06:27:20;;;;;;;;;;;15.70;99.90;;;;;;5061080;28;20342;-87
2022/09/04 06:29:55;;;;;;;;;;;15.70;99.90;;;;;;5062459;28;19947;-88
2022/09/04 06:32:20;;;;;;;;;;;15.80;99.90;;;;;;5061563;28;20030;-88
2022/09/04 06:35:13;;;;;;;;;;;15.80;99.90;;;;;;5062719;28;20035;-88
2022/09/04 06:37:45;;;;;;;;;;;15.80;99.90;;;;;;5060782;28;20363;-88
2022/09/04 06:40:31;;;;;;;;;;;15.80;99.90;;;;;;5061865;28;19929;-88
2022/09/04 06:43:04;;;;;;;;;;;15.90;99.90;;;;;;5060433;28;20007;-88
2022/09/04 06:45:42;;;;;;;;;;;15.90;99.90;;;;;;5062858;28;20447;-88
2022/09/04 06:48:22;;;;;;;;;;;15.90;99.90;;;;;;5062844;28;20011;-89
2022/09/04 06:50:52;;;;;;;;;;;15.90;99.90;;;;;;5064258;28;19932;-89
2022/09/04 06:53:28;;;;;;;;;;;16.00;99.90;;;;;;5064039;28;20044;-89
2022/09/04 06:56:12;;;;;;;;;;;16.00;99.90;;;;;;5062539;28;19958;-89
2022/09/04 06:58:38;;;;;;;;;;;16.10;99.90;;;;;;5060508;28;19931;-88
2022/09/04 07:01:10;;;;;;;;;;;16.10;99.90;;;;;;5063208;28;19924;-89
2022/09/04 07:03:43;;;;;;;;;;;16.20;99.90;;;;;;5064494;28;19924;-87
2022/09/04 07:06:13;;;;;;;;;;;16.20;99.90;;;;;;5064808;28;19948;-88
2022/09/04 07:08:46;;;;;;;;;;;16.30;99.90;;;;;;5064363;28;20211;-89
2022/09/04 07:11:11;;;;;;;;;;;16.30;99.90;;;;;;5063298;28;19929;-89
2022/09/04 07:13:42;;;;;;;;;;;16.40;99.90;;;;;;5063440;28;19947;-88
2022/09/04 07:16:14;;;;;;;;;;;16.40;99.90;;;;;;5064463;28;19971;-88
2022/09/04 07:18:49;;;;;;;;;;;16.50;99.90;;;;;;5096049;28;19974;-88
2022/09/04 07:21:28;;;;;;;;;;;16.50;99.90;;;;;;5063871;28;20394;-88
2022/09/04 07:24:12;;;;;;;;;;;16.50;99.90;;;;;;5063279;28;19988;-88
2022/09/04 07:26:53;;;;;;;;;;;16.60;99.90;;;;;;5063860;28;19985;-89
2022/09/04 07:29:18;;;;;;;;;;;16.60;99.90;;;;;;5080947;28;19928;-88
2022/09/04 07:31:44;;;;;;;;;;;16.70;99.90;;;;;;5083090;28;19932;-88
2022/09/04 07:34:17;;;;;;;;;;;16.70;99.90;;;;;;5082673;28;19931;-88
2022/09/04 07:37:00;;;;;;;;;;;16.70;99.90;;;;;;5064003;28;19932;-88
2022/09/04 07:39:32;;;;;;;;;;;16.70;99.90;;;;;;5064116;28;19924;-88
2022/09/04 07:42:04;;;;;;;;;;;16.70;99.90;;;;;;5064303;28;19928;-87
2022/09/04 07:44:38;;;;;;;;;;;16.80;99.90;;;;;;5062149;28;19924;-89
2022/09/04 07:47:13;;;;;;;;;;;16.80;99.90;;;;;;5060356;28;19928;-89
2022/09/04 07:50:00;;;;;;;;;;;16.90;99.90;;;;;;5077651;28;19971;-88
2022/09/04 07:52:38;;;;;;;;;;;17.00;99.90;;;;;;5066559;28;19924;-89
2022/09/04 07:55:10;;;;;;;;;;;17.00;99.90;;;;;;5062152;28;20370;-89
2022/09/04 07:57:44;;;;;;;;;;;17.10;99.90;;;;;;5063615;28;19990;-89
2022/09/04 08:00:17;;;;;;;;;;;17.10;99.90;;;;;;5065230;28;19969;-89
2022/09/04 08:03:01;;;;;;;;;;;17.20;99.90;;;;;;5065199;28;20256;-89
2022/09/04 08:05:43;;;;;;;;;;;17.20;99.90;;;;;;5065595;28;20381;-90
2022/09/04 08:08:24;;;;;;;;;;;17.30;99.90;;;;;;5048717;28;19964;-86
2022/09/04 08:11:01;;;;;;;;;;;17.30;99.90;;;;;;5066239;28;19947;-85
2022/09/04 08:13:32;;;;;;;;;;;17.40;99.90;;;;;;5064282;28;19924;-86
2022/09/04 08:16:05;;;;;;;;;;;17.50;99.90;;;;;;5065216;28;20379;-86
2022/09/04 08:18:51;;;;;;;;;;;17.50;99.90;;;;;;5065044;28;19924;-82
2022/09/04 08:21:25;;;;;;;;;;;17.60;99.90;;;;;;5065835;28;19929;-85
2022/09/04 08:23:51;;;;;;;;;;;17.60;99.90;;;;;;5066165;28;19986;-87
2022/09/04 08:26:16;;;;;;;;;;;17.70;99.90;;;;;;5066146;28;19963;-86
2022/09/04 08:29:02;;;;;;;;;;;17.80;99.90;;;;;;5064860;28;20387;-85
2022/09/04 08:31:35;;;;;;;;;;;17.80;99.90;;;;;;5064937;28;19925;-87
2022/09/04 08:34:10;;;;;;;;;;;17.90;99.90;;;;;;5064383;28;20472;-85
2022/09/04 08:36:50;;;;;;;;;;;17.90;99.90;;;;;;5045655;28;20020;-85
2022/09/04 08:39:42;;;;;;;;;;;18.00;99.90;;;;;;5062676;28;20038;-86
2022/09/04 08:42:22;;;;;;;;;;;18.00;99.90;;;;;;5060257;28;19925;-86
2022/09/04 08:45:06;;;;;;;;;;;18.10;99.90;;;;;;5065556;28;20718;-86
2022/09/04 08:47:52;;;;;;;;;;;18.10;99.90;;;;;;5065690;28;20583;-86
2022/09/04 08:50:53;;;;;;;;;;;18.20;99.90;;;;;;5065156;28;19925;-87
2022/09/04 08:53:30;;;;;;;;;;;18.30;99.90;;;;;;5022570;28;19929;-84
2022/09/04 08:56:17;;;;;;;;;;;18.40;99.90;;;;;;5057948;28;19928;-83
2022/09/04 08:58:55;;;;;;;;;;;18.40;99.90;;;;;;5060822;28;19935;-83
2022/09/04 09:01:29;;;;;;;;;;;18.50;99.90;;;;;;5063090;28;20008;-84
2022/09/04 09:04:04;;;;;;;;;;;18.50;99.90;;;;;;5064178;28;20327;-85
2022/09/04 09:06:48;;;;;;;;;;;18.60;99.90;;;;;;5059925;28;19974;-84
2022/09/04 09:09:32;;;;;;;;;;;18.60;99.90;;;;;;5061488;28;19928;-84
2022/09/04 09:11:58;;;;;;;;;;;18.70;99.90;;;;;;5043538;28;19928;-84
2022/09/04 09:14:26;;;;;;;;;;;18.70;99.90;;;;;;5062161;28;20748;-84
2022/09/04 09:17:11;;;;;;;;;;;18.80;99.90;;;;;;5063171;28;20298;-83
2022/09/04 09:19:42;;;;;;;;;;;18.80;99.90;;;;;;5061399;28;19924;-82
2022/09/04 09:22:26;;;;;;;;;;;18.90;99.90;;;;;;5066700;28;19925;-77
2022/09/04 09:24:58;;;;;;;;;;;18.90;99.90;;;;;;5060448;28;19928;-78
2022/09/04 09:27:23;;;;;;;;;;;18.90;99.90;;;;;;5063877;28;19933;-79
2022/09/04 09:29:52;;;;;;;;;;;19.00;99.90;;;;;;5066401;28;19925;-83
2022/09/04 09:32:37;;;;;;;;;;;19.00;99.90;;;;;;5064987;28;19931;-76
2022/09/04 09:35:21;;;;;;;;;;;19.10;99.90;;;;;;5052102;28;19924;-81
2022/09/04 09:38:05;;;;;;;;;;;19.20;99.90;;;;;;5066810;28;19924;-92
2022/09/04 09:40:54;;;;;;;;;;;19.30;99.90;;;;;;5059634;28;19976;-73
2022/09/04 09:43:46;;;;;;;;;;;19.40;99.90;;;;;;5076980;28;19931;-80
2022/09/04 09:46:30;;;;;;;;;;;19.40;99.90;;;;;;5073292;28;20310;-80
2022/09/04 09:48:59;;;;;;;;;;;19.50;99.90;;;;;;5082753;28;20394;-79
2022/09/04 09:51:40;;;;;;;;;;;19.50;99.90;;;;;;5045708;28;20354;-77
2022/09/04 09:54:22;;;;;;;;;;;19.50;99.90;;;;;;5063671;28;19932;-74
2022/09/04 09:57:26;;;;;;;;;;;19.60;99.90;;;;;;5063381;28;19924;-76
2022/09/04 10:00:04;;;;;;;;;;;19.70;99.90;;;;;;5023494;28;19929;-77
2022/09/04 10:02:48;;;;;;;;;;;19.70;99.90;;;;;;5013832;28;19944;-79
2022/09/04 10:05:28;;;;;;;;;;;19.80;99.90;;;;;;5048592;28;19978;-76
2022/09/04 10:08:00;;;;;;;;;;;19.80;99.90;;;;;;5063891;28;20568;-80
2022/09/04 10:10:28;;;;;;;;;;;19.90;99.90;;;;;;5062430;28;19946;-78
2022/09/04 10:13:12;;;;;;;;;;;20.00;99.90;;;;;;5062083;28;19971;-89
2022/09/04 10:15:47;;;;;;;;;;;20.10;99.90;;;;;;5062380;28;19947;-82
2022/09/04 10:18:18;;;;;;;;;;;20.10;99.90;;;;;;5063395;28;19929;-80
2022/09/04 10:20:56;;;;;;;;;;;20.10;99.90;;;;;;5062867;28;19948;-79
2022/09/04 10:23:39;;;;;;;;;;;20.30;99.90;;;;;;5063043;28;19939;-79
2022/09/04 10:26:12;;;;;;;;;;;20.40;99.90;;;;;;5061805;28;19933;-78
2022/09/04 10:28:48;;;;;;;;;;;20.50;99.90;;;;;;5062646;28;19948;-79
2022/09/04 10:31:16;;;;;;;;;;;20.50;99.90;;;;;;5062801;28;20011;-79
2022/09/04 10:33:42;;;;;;;;;;;20.60;99.90;;;;;;5062397;28;19929;-79
2022/09/04 10:36:13;;;;;;;;;;;20.60;99.90;;;;;;5060234;28;20390;-79
2022/09/04 10:41:55;;;;;;;;;;;20.70;99.90;;;;;;5058706;28;19932;-78
2022/09/04 10:44:28;;;;;;;;;;;20.80;99.90;;;;;;5062999;28;19990;-79
2022/09/04 10:47:03;;;;;;;;;;;20.80;99.90;;;;;;5062031;28;19925;-80
2022/09/04 10:49:47;;;;;;;;;;;20.80;99.90;;;;;;5061586;28;20448;-79
2022/09/04 10:52:16;;;;;;;;;;;20.90;99.90;;;;;;5063317;28;19944;-82
2022/09/04 10:54:56;;;;;;;;;;;21.00;99.90;;;;;;5078556;28;19932;-85
2022/09/04 10:57:36;;;;;;;;;;;21.00;99.90;;;;;;5042420;28;20341;-85
2022/09/04 11:00:06;;;;;;;;;;;21.10;99.90;;;;;;5075435;28;20337;-85
2022/09/04 11:02:44;;;;;;;;;;;21.20;99.90;;;;;;5054188;28;20142;-86
2022/09/04 11:05:21;;;;;;;;;;;21.20;99.90;;;;;;5062172;28;19932;-83
2022/09/04 11:07:50;;;;;;;;;;;21.20;99.90;;;;;;5062497;28;19999;-86
2022/09/04 11:10:21;;;;;;;;;;;21.30;99.90;;;;;;5061282;28;19924;-86
2022/09/04 11:12:52;;;;;;;;;;;21.30;99.90;;;;;;5061925;28;19924;-81
2022/09/04 11:15:25;;;;;;;;;;;21.40;99.90;;;;;;5061349;28;19924;-84
2022/09/04 11:17:50;;;;;;;;;;;21.40;99.90;;;;;;5060470;28;19990;-87
2022/09/04 11:20:21;;;;;;;;;;;21.50;99.90;;;;;;5061950;28;19970;-83
2022/09/04 11:23:03;;;;;;;;;;;21.50;99.90;;;;;;5062049;28;20393;-85
2022/09/04 11:25:45;;;;;;;;;;;21.60;99.90;;;;;;5061071;28;19932;-85
2022/09/04 11:28:19;;;;;;;;;;;21.70;99.90;;;;;;5061487;28;20016;-83
2022/09/04 11:30:53;;;;;;;;;;;21.70;99.90;;;;;;5064216;28;19966;-82
2022/09/04 11:33:29;;;;;;;;;;;21.80;99.90;;;;;;5081562;28;19978;-85
2022/09/04 11:35:54;;;;;;;;;;;21.90;99.90;;;;;;5066090;28;20832;-79
2022/09/04 11:38:30;;;;;;;;;;;21.90;99.90;;;;;;5066988;28;20335;-79
2022/09/04 11:41:23;;;;;;;;;;;21.90;99.90;;;;;;5065619;28;19932;-79
2022/09/04 11:43:52;;;;;;;;;;;21.90;99.90;;;;;;5063822;28;20379;-79
2022/09/04 11:46:28;;;;;;;;;;;21.90;99.90;;;;;;5065295;28;19924;-79
2022/09/04 11:49:15;;;;;;;;;;;22.00;99.90;;;;;;5064686;28;20354;-79
2022/09/04 11:51:59;;;;;;;;;;;22.00;99.90;;;;;;5064923;28;19932;-79
2022/09/04 11:54:39;;;;;;;;;;;22.00;99.90;;;;;;5066740;28;19928;-79
2022/09/04 11:57:23;;;;;;;;;;;22.10;99.90;;;;;;5065587;28;20423;-79
2022/09/04 11:59:51;;;;;;;;;;;22.10;99.90;;;;;;5065743;28;19939;-79
2022/09/04 12:02:36;;;;;;;;;;;22.20;99.90;;;;;;5066281;28;19951;-79
2022/09/04 12:05:10;;;;;;;;;;;22.20;99.90;;;;;;5066054;28;19924;-79
2022/09/04 12:07:38;;;;;;;;;;;22.30;99.90;;;;;;5065633;28;20440;-79
2022/09/04 12:10:13;;;;;;;;;;;22.30;99.90;;;;;;5065532;28;19970;-79
2022/09/04 12:12:51;;;;;;;;;;;22.40;99.90;;;;;;5064619;28;20306;-79
2022/09/04 12:15:21;;;;;;;;;;;22.40;99.90;;;;;;5064208;28;19928;-79
2022/09/04 12:18:07;;;;;;;;;;;22.40;99.90;;;;;;5064482;28;19989;-79
2022/09/04 12:20:59;;;;;;;;;;;22.40;99.90;;;;;;5065082;28;19935;-82
2022/09/04 12:23:43;;;;;;;;;;;22.40;99.90;;;;;;5064634;28;19974;-83
2022/09/04 12:26:27;;;;;;;;;;;22.50;99.90;;;;;;5065504;28;20353;-82
2022/09/04 12:29:02;;;;;;;;;;;22.60;99.90;;;;;;5065616;28;19925;-83
2022/09/04 12:31:44;;;;;;;;;;;22.60;99.90;;;;;;5064946;28;19946;-83
2022/09/04 12:34:29;;;;;;;;;;;22.70;99.90;;;;;;5046934;28;19986;-82
2022/09/04 12:37:06;;;;;;;;;;;22.70;99.90;;;;;;5064162;28;19924;-85
2022/09/04 12:39:47;;;;;;;;;;;22.80;99.90;;;;;;5064277;28;20523;-84
2022/09/04 12:42:31;;;;;;;;;;;22.80;99.90;;;;;;5063899;28;20390;-83
2022/09/04 12:45:09;;;;;;;;;;;22.90;99.90;;;;;;5064888;28;19925;-83
2022/09/04 12:47:52;;;;;;;;;;;22.90;99.90;;;;;;5065239;28;19932;-84
2022/09/04 12:50:28;;;;;;;;;;;23.00;99.90;;;;;;5065683;28;20329;-84
2022/09/04 12:53:14;;;;;;;;;;;23.00;99.90;;;;;;5064601;28;19932;-86
2022/09/04 12:55:39;;;;;;;;;;;23.00;99.90;;;;;;5080141;28;19924;-83
2022/09/04 12:58:30;;;;;;;;;;;23.10;99.90;;;;;;5064516;28;19931;-83
2022/09/04 13:01:09;;;;;;;;;;;23.10;99.90;;;;;;5064827;28;20320;-85
2022/09/04 13:03:36;;;;;;;;;;;23.10;99.90;;;;;;5063740;28;19960;-83
2022/09/04 13:06:08;;;;;;;;;;;23.10;99.90;;;;;;5064396;28;20404;-83
2022/09/04 13:08:52;;;;;;;;;;;23.10;99.90;;;;;;5064846;28;20014;-84
2022/09/04 13:11:27;;;;;;;;;;;23.10;99.90;;;;;;5063331;28;19983;-84
2022/09/04 13:14:07;;;;;;;;;;;23.20;99.90;;;;;;5064052;28;20458;-80
2022/09/04 13:16:53;;;;;;;;;;;23.10;99.90;;;;;;5064621;28;19924;-80
2022/09/04 13:19:27;;;;;;;;;;;23.10;99.90;;;;;;5063670;28;20318;-80
2022/09/04 13:22:05;;;;;;;;;;;23.20;99.90;;;;;;5096387;28;19931;-80
2022/09/04 13:24:43;;;;;;;;;;;23.30;99.90;;;;;;5062409;28;20445;-80
2022/09/04 13:27:17;;;;;;;;;;;23.30;99.90;;;;;;5062604;28;19925;-80
2022/09/04 13:30:01;;;;;;;;;;;23.30;99.90;;;;;;5064306;28;19925;-81
2022/09/04 13:32:34;;;;;;;;;;;23.30;99.90;;;;;;5080667;28;19924;-81
2022/09/04 13:35:12;;;;;;;;;;;23.40;99.90;;;;;;5062931;28;19932;-81
2022/09/04 13:37:55;;;;;;;;;;;23.40;99.90;;;;;;5067395;28;19924;-80
2022/09/04 13:40:39;;;;;;;;;;;23.40;99.90;;;;;;5084645;28;20199;-80
2022/09/04 13:43:18;;;;;;;;;;;23.50;99.90;;;;;;5072231;28;19974;-80
2022/09/04 13:45:45;;;;;;;;;;;23.50;99.90;;;;;;5064992;28;19925;-79
2022/09/04 13:48:19;;;;;;;;;;;23.50;99.90;;;;;;5063916;28;19924;-79
2022/09/04 13:50:51;;;;;;;;;;;23.50;99.90;;;;;;5064089;28;19932;-79
2022/09/04 13:53:19;;;;;;;;;;;23.50;99.90;;;;;;5063475;28;19924;-79
2022/09/04 13:55:53;;;;;;;;;;;23.60;99.90;;;;;;5062395;28;21551;-79
2022/09/04 13:58:37;;;;;;;;;;;23.60;99.90;;;;;;5070647;28;19951;-79
2022/09/04 14:01:06;;;;;;;;;;;23.60;99.90;;;;;;5085564;28;19925;-80
2022/09/04 14:03:32;;;;;;;;;;;23.60;99.90;;;;;;5064202;28;20031;-80
2022/09/04 14:05:58;;;;;;;;;;;23.70;99.90;;;;;;5066630;28;19980;-80
2022/09/04 14:08:23;;;;;;;;;;;23.70;99.90;;;;;;5062320;28;19925;-81
2022/09/04 14:11:08;;;;;;;;;;;23.70;99.90;;;;;;5063946;28;19935;-80
2022/09/04 14:13:43;;;;;;;;;;;23.70;99.90;;;;;;5062604;28;19963;-80
2022/09/04 14:16:12;;;;;;;;;;;23.70;99.90;;;;;;5061227;28;19947;-81
2022/09/04 14:18:50;;;;;;;;;;;23.70;99.90;;;;;;5072958;28;19959;-81
2022/09/04 14:21:22;;;;;;;;;;;23.80;99.90;;;;;;5067501;28;19925;-81
2022/09/04 14:23:54;;;;;;;;;;;23.80;99.90;;;;;;5061412;28;19992;-80
2022/09/04 14:26:25;;;;;;;;;;;23.80;99.90;;;;;;5064137;28;19928;-81
2022/09/04 14:29:14;;;;;;;;;;;23.90;99.90;;;;;;5062928;28;19924;-81
2022/09/04 14:31:48;;;;;;;;;;;23.90;99.90;;;;;;5068573;28;19931;-80
2022/09/04 14:34:14;;;;;;;;;;;23.90;99.90;;;;;;5076477;28;19924;-80
2022/09/04 14:36:55;;;;;;;;;;;24.00;99.90;;;;;;5062801;28;20727;-80
2022/09/04 14:39:20;;;;;;;;;;;24.00;99.90;;;;;;5073079;28;19924;-80
2022/09/04 14:42:04;;;;;;;;;;;24.00;99.90;;;;;;5082746;28;20015;-80
2022/09/04 14:44:37;;;;;;;;;;;24.00;99.90;;;;;;5056797;28;19924;-81
2022/09/04 14:47:04;;;;;;;;;;;24.00;99.90;;;;;;5068900;28;19928;-80
2022/09/04 14:49:30;;;;;;;;;;;24.00;99.90;;;;;;5081583;28;19930;-81
2022/09/04 14:51:59;;;;;;;;;;;24.00;99.90;;;;;;5076742;28;20128;-81
2022/09/04 14:54:30;;;;;;;;;;;24.10;99.90;;;;;;5070215;28;19931;-86
2022/09/04 14:57:10;;;;;;;;;;;24.10;99.90;;;;;;5060239;28;20343;-86
2022/09/04 14:59:40;;;;;;;;;;;24.10;99.90;;;;;;5071225;28;19986;-86
2022/09/04 15:02:15;;;;;;;;;;;24.00;99.90;;;;;;5065495;28;19931;-85
2022/09/04 15:04:45;;;;;;;;;;;24.10;99.90;;;;;;5065916;28;19986;-84
2022/09/04 15:07:28;;;;;;;;;;;24.10;99.90;;;;;;5061263;28;20288;-86
2022/09/04 15:10:05;;;;;;;;;;;24.00;99.00;;;;;;5061101;28;19956;-85
2022/09/04 15:12:33;;;;;;;;;;;24.00;99.30;;;;;;5061094;28;19924;-84